sensor_id;sensor_type;location;lat;lon;timestamp;P1;durP1;ratioP1;P2;durP2;ratioP2
45842;SDS011;31563;51.744;8.252;2022-09-03T00:00:16;1.17;;;0.40;;
45842;SDS011;31563;51.744;8.252;2022-09-03T00:02:48;0.75;;;0.40;;
45842;SDS011;31563;51.744;8.252;2022-09-03T00:05:24;2.08;;;0.40;;
45842;SDS011;31563;51.744;8.252;2022-09-03T00:08:01;0.68;;;0.30;;
45842;SDS011;31563;51.744;8.252;2022-09-03T00:10:35;0.30;;;0.20;;
45842;SDS011;31563;51.744;8.252;2022-09-03T00:13:11;1.05;;;0.30;;
45842;SDS011;31563;51.744;8.252;2022-09-03T00:15:42;0.52;;;0.20;;
45842;SDS011;31563;51.744;8.252;2022-09-03T00:18:13;1.17;;;0.60;;
45842;SDS011;31563;51.744;8.252;2022-09-03T00:20:45;2.90;;;0.55;;
45842;SDS011;31563;51.744;8.252;2022-09-03T00:23:19;3.22;;;0.52;;
45842;SDS011;31563;51.744;8.252;2022-09-03T00:25:50;4.50;;;0.45;;
45842;SDS011;31563;51.744;8.252;2022-09-03T00:28:23;5.00;;;0.30;;
45842;SDS011;31563;51.744;8.252;2022-09-03T00:30:57;2.33;;;0.40;;
45842;SDS011;31563;51.744;8.252;2022-09-03T00:33:33;3.63;;;0.50;;
45842;SDS011;31563;51.744;8.252;2022-09-03T00:36:09;7.45;;;0.63;;
45842;SDS011;31563;51.744;8.252;2022-09-03T00:38:42;4.75;;;0.40;;
45842;SDS011;31563;51.744;8.252;2022-09-03T00:41:16;4.07;;;0.55;;
45842;SDS011;31563;51.744;8.252;2022-09-03T00:43:56;2.08;;;0.40;;
45842;SDS011;31563;51.744;8.252;2022-09-03T00:46:40;2.67;;;0.50;;
45842;SDS011;31563;51.744;8.252;2022-09-03T00:49:24;1.42;;;0.30;;
45842;SDS011;31563;51.744;8.252;2022-09-03T00:52:06;4.18;;;0.40;;
45842;SDS011;31563;51.744;8.252;2022-09-03T00:54:42;1.60;;;0.40;;
45842;SDS011;31563;51.744;8.252;2022-09-03T00:57:22;2.50;;;0.40;;
45842;SDS011;31563;51.744;8.252;2022-09-03T01:00:04;2.58;;;0.40;;
45842;SDS011;31563;51.744;8.252;2022-09-03T01:02:38;3.45;;;0.40;;
45842;SDS011;31563;51.744;8.252;2022-09-03T01:05:22;1.25;;;0.30;;
45842;SDS011;31563;51.744;8.252;2022-09-03T01:08:09;1.15;;;0.28;;
45842;SDS011;31563;51.744;8.252;2022-09-03T01:10:52;1.75;;;0.40;;
45842;SDS011;31563;51.744;8.252;2022-09-03T01:13:26;2.42;;;0.40;;
45842;SDS011;31563;51.744;8.252;2022-09-03T01:16:03;0.70;;;0.28;;
45842;SDS011;31563;51.744;8.252;2022-09-03T01:18:41;1.40;;;0.30;;
45842;SDS011;31563;51.744;8.252;2022-09-03T01:21:23;0.77;;;0.30;;
45842;SDS011;31563;51.744;8.252;2022-09-03T01:24:25;1.15;;;0.30;;
45842;SDS011;31563;51.744;8.252;2022-09-03T01:27:21;2.83;;;0.22;;
45842;SDS011;31563;51.744;8.252;2022-09-03T01:30:04;1.65;;;0.30;;
45842;SDS011;31563;51.744;8.252;2022-09-03T01:32:36;1.92;;;0.40;;
45842;SDS011;31563;51.744;8.252;2022-09-03T01:35:16;2.08;;;0.38;;
45842;SDS011;31563;51.744;8.252;2022-09-03T01:37:55;3.25;;;0.20;;
45842;SDS011;31563;51.744;8.252;2022-09-03T01:40:34;1.33;;;0.45;;
45842;SDS011;31563;51.744;8.252;2022-09-03T01:43:13;1.73;;;0.50;;
45842;SDS011;31563;51.744;8.252;2022-09-03T01:45:53;1.85;;;0.40;;
45842;SDS011;31563;51.744;8.252;2022-09-03T01:48:30;1.58;;;0.68;;
45842;SDS011;31563;51.744;8.252;2022-09-03T01:51:07;1.17;;;0.68;;
45842;SDS011;31563;51.744;8.252;2022-09-03T01:53:47;1.70;;;0.40;;
45842;SDS011;31563;51.744;8.252;2022-09-03T01:56:34;1.58;;;0.30;;
45842;SDS011;31563;51.744;8.252;2022-09-03T01:59:13;1.92;;;0.50;;
45842;SDS011;31563;51.744;8.252;2022-09-03T02:01:51;1.55;;;0.50;;
45842;SDS011;31563;51.744;8.252;2022-09-03T02:04:24;2.67;;;0.50;;
45842;SDS011;31563;51.744;8.252;2022-09-03T02:11:59;1.35;;;0.40;;
45842;SDS011;31563;51.744;8.252;2022-09-03T02:14:34;3.22;;;0.50;;
45842;SDS011;31563;51.744;8.252;2022-09-03T02:17:04;2.40;;;0.40;;
45842;SDS011;31563;51.744;8.252;2022-09-03T02:19:33;0.93;;;0.30;;
45842;SDS011;31563;51.744;8.252;2022-09-03T02:24:31;0.98;;;0.30;;
45842;SDS011;31563;51.744;8.252;2022-09-03T02:27:00;1.75;;;0.30;;
45842;SDS011;31563;51.744;8.252;2022-09-03T02:29:28;0.50;;;0.30;;
45842;SDS011;31563;51.744;8.252;2022-09-03T02:31:57;0.83;;;0.30;;
45842;SDS011;31563;51.744;8.252;2022-09-03T02:34:26;1.05;;;0.35;;
45842;SDS011;31563;51.744;8.252;2022-09-03T02:36:54;2.13;;;0.40;;
45842;SDS011;31563;51.744;8.252;2022-09-03T02:39:22;1.45;;;0.40;;
45842;SDS011;31563;51.744;8.252;2022-09-03T02:41:53;1.48;;;0.28;;
45842;SDS011;31563;51.744;8.252;2022-09-03T02:44:23;0.98;;;0.43;;
45842;SDS011;31563;51.744;8.252;2022-09-03T02:46:57;1.17;;;0.57;;
45842;SDS011;31563;51.744;8.252;2022-09-03T02:49:29;2.83;;;0.63;;
45842;SDS011;31563;51.744;8.252;2022-09-03T02:51:58;1.05;;;0.30;;
45842;SDS011;31563;51.744;8.252;2022-09-03T02:54:31;0.70;;;0.40;;
45842;SDS011;31563;51.744;8.252;2022-09-03T02:57:01;1.13;;;0.50;;
45842;SDS011;31563;51.744;8.252;2022-09-03T02:59:30;1.40;;;0.30;;
45842;SDS011;31563;51.744;8.252;2022-09-03T03:01:58;1.27;;;0.40;;
45842;SDS011;31563;51.744;8.252;2022-09-03T03:04:28;0.65;;;0.30;;
45842;SDS011;31563;51.744;8.252;2022-09-03T03:06:57;1.40;;;0.35;;
45842;SDS011;31563;51.744;8.252;2022-09-03T03:09:25;0.30;;;0.20;;
45842;SDS011;31563;51.744;8.252;2022-09-03T03:11:54;0.93;;;0.52;;
45842;SDS011;31563;51.744;8.252;2022-09-03T03:14:22;0.85;;;0.30;;
45842;SDS011;31563;51.744;8.252;2022-09-03T03:16:50;1.00;;;0.35;;
45842;SDS011;31563;51.744;8.252;2022-09-03T03:19:19;0.82;;;0.30;;
45842;SDS011;31563;51.744;8.252;2022-09-03T03:21:48;0.50;;;0.20;;
45842;SDS011;31563;51.744;8.252;2022-09-03T03:24:16;1.92;;;0.30;;
45842;SDS011;31563;51.744;8.252;2022-09-03T03:26:45;1.63;;;0.35;;
45842;SDS011;31563;51.744;8.252;2022-09-03T03:29:14;1.52;;;0.40;;
45842;SDS011;31563;51.744;8.252;2022-09-03T03:31:43;0.68;;;0.43;;
45842;SDS011;31563;51.744;8.252;2022-09-03T03:34:11;1.13;;;0.40;;
45842;SDS011;31563;51.744;8.252;2022-09-03T03:36:40;1.13;;;0.30;;
45842;SDS011;31563;51.744;8.252;2022-09-03T03:39:09;0.75;;;0.30;;
45842;SDS011;31563;51.744;8.252;2022-09-03T03:41:37;1.33;;;0.65;;
45842;SDS011;31563;51.744;8.252;2022-09-03T03:44:06;0.82;;;0.30;;
45842;SDS011;31563;51.744;8.252;2022-09-03T03:46:35;0.90;;;0.47;;
45842;SDS011;31563;51.744;8.252;2022-09-03T03:49:05;1.45;;;0.40;;
45842;SDS011;31563;51.744;8.252;2022-09-03T03:54:03;1.48;;;0.30;;
45842;SDS011;31563;51.744;8.252;2022-09-03T03:56:33;1.23;;;0.30;;
45842;SDS011;31563;51.744;8.252;2022-09-03T03:59:02;0.95;;;0.50;;
45842;SDS011;31563;51.744;8.252;2022-09-03T04:01:30;0.90;;;0.20;;
45842;SDS011;31563;51.744;8.252;2022-09-03T04:03:59;2.47;;;0.30;;
45842;SDS011;31563;51.744;8.252;2022-09-03T04:06:27;1.08;;;0.40;;
45842;SDS011;31563;51.744;8.252;2022-09-03T04:08:55;0.50;;;0.30;;
45842;SDS011;31563;51.744;8.252;2022-09-03T04:11:24;1.90;;;0.52;;
45842;SDS011;31563;51.744;8.252;2022-09-03T04:13:53;0.43;;;0.32;;
45842;SDS011;31563;51.744;8.252;2022-09-03T04:16:22;0.60;;;0.20;;
45842;SDS011;31563;51.744;8.252;2022-09-03T04:18:52;1.40;;;0.40;;
45842;SDS011;31563;51.744;8.252;2022-09-03T04:21:21;1.48;;;0.30;;
45842;SDS011;31563;51.744;8.252;2022-09-03T04:23:53;2.42;;;0.40;;
45842;SDS011;31563;51.744;8.252;2022-09-03T04:26:23;2.53;;;0.37;;
45842;SDS011;31563;51.744;8.252;2022-09-03T04:28:54;1.35;;;0.22;;
45842;SDS011;31563;51.744;8.252;2022-09-03T04:31:23;4.07;;;0.73;;
45842;SDS011;31563;51.744;8.252;2022-09-03T04:33:51;10.23;;;1.05;;
45842;SDS011;31563;51.744;8.252;2022-09-03T04:36:21;10.95;;;0.90;;
45842;SDS011;31563;51.744;8.252;2022-09-03T04:38:51;5.75;;;0.70;;
45842;SDS011;31563;51.744;8.252;2022-09-03T04:41:21;3.75;;;0.75;;
45842;SDS011;31563;51.744;8.252;2022-09-03T04:43:51;3.13;;;0.50;;
45842;SDS011;31563;51.744;8.252;2022-09-03T04:46:21;4.97;;;0.60;;
45842;SDS011;31563;51.744;8.252;2022-09-03T04:48:52;6.65;;;0.40;;
45842;SDS011;31563;51.744;8.252;2022-09-03T04:53:52;6.37;;;0.70;;
45842;SDS011;31563;51.744;8.252;2022-09-03T04:56:23;10.95;;;1.40;;
45842;SDS011;31563;51.744;8.252;2022-09-03T04:58:53;5.10;;;0.57;;
45842;SDS011;31563;51.744;8.252;2022-09-03T05:01:25;5.68;;;0.50;;
45842;SDS011;31563;51.744;8.252;2022-09-03T05:03:54;1.60;;;0.45;;
45842;SDS011;31563;51.744;8.252;2022-09-03T05:06:23;5.20;;;0.70;;
45842;SDS011;31563;51.744;8.252;2022-09-03T05:08:52;3.00;;;0.40;;
45842;SDS011;31563;51.744;8.252;2022-09-03T05:11:21;1.95;;;0.88;;
45842;SDS011;31563;51.744;8.252;2022-09-03T05:13:51;2.50;;;0.53;;
45842;SDS011;31563;51.744;8.252;2022-09-03T05:16:21;2.88;;;0.50;;
45842;SDS011;31563;51.744;8.252;2022-09-03T05:18:51;3.95;;;0.70;;
45842;SDS011;31563;51.744;8.252;2022-09-03T05:21:20;4.63;;;0.80;;
45842;SDS011;31563;51.744;8.252;2022-09-03T05:23:50;1.85;;;0.50;;
45842;SDS011;31563;51.744;8.252;2022-09-03T05:26:19;3.75;;;0.70;;
45842;SDS011;31563;51.744;8.252;2022-09-03T05:28:52;1.40;;;0.60;;
45842;SDS011;31563;51.744;8.252;2022-09-03T05:31:21;3.70;;;0.60;;
45842;SDS011;31563;51.744;8.252;2022-09-03T05:33:52;8.50;;;0.85;;
45842;SDS011;31563;51.744;8.252;2022-09-03T05:36:24;4.32;;;0.90;;
45842;SDS011;31563;51.744;8.252;2022-09-03T05:38:54;1.90;;;0.70;;
45842;SDS011;31563;51.744;8.252;2022-09-03T05:43:53;2.25;;;1.25;;
45842;SDS011;31563;51.744;8.252;2022-09-03T05:46:26;1.70;;;0.90;;
45842;SDS011;31563;51.744;8.252;2022-09-03T05:48:57;2.08;;;0.82;;
45842;SDS011;31563;51.744;8.252;2022-09-03T05:51:26;2.80;;;0.80;;
45842;SDS011;31563;51.744;8.252;2022-09-03T05:53:55;1.80;;;0.80;;
45842;SDS011;31563;51.744;8.252;2022-09-03T05:56:25;3.08;;;1.25;;
45842;SDS011;31563;51.744;8.252;2022-09-03T05:58:55;2.05;;;0.88;;
45842;SDS011;31563;51.744;8.252;2022-09-03T06:01:27;1.48;;;0.80;;
45842;SDS011;31563;51.744;8.252;2022-09-03T06:03:57;3.15;;;0.95;;
45842;SDS011;31563;51.744;8.252;2022-09-03T06:06:27;3.65;;;0.70;;
45842;SDS011;31563;51.744;8.252;2022-09-03T06:08:57;1.90;;;0.90;;
45842;SDS011;31563;51.744;8.252;2022-09-03T06:11:27;2.35;;;0.90;;
45842;SDS011;31563;51.744;8.252;2022-09-03T06:13:57;2.15;;;0.70;;
45842;SDS011;31563;51.744;8.252;2022-09-03T06:16:28;1.20;;;0.50;;
45842;SDS011;31563;51.744;8.252;2022-09-03T06:18:57;2.70;;;0.80;;
45842;SDS011;31563;51.744;8.252;2022-09-03T06:21:26;3.30;;;0.80;;
45842;SDS011;31563;51.744;8.252;2022-09-03T06:23:55;1.38;;;0.80;;
45842;SDS011;31563;51.744;8.252;2022-09-03T06:26:25;2.42;;;0.90;;
45842;SDS011;31563;51.744;8.252;2022-09-03T06:28:55;1.02;;;0.60;;
45842;SDS011;31563;51.744;8.252;2022-09-03T06:31:25;1.60;;;0.70;;
45842;SDS011;31563;51.744;8.252;2022-09-03T06:33:55;2.95;;;0.60;;
45842;SDS011;31563;51.744;8.252;2022-09-03T06:36:29;5.68;;;1.65;;
45842;SDS011;31563;51.744;8.252;2022-09-03T06:38:57;5.78;;;1.65;;
45842;SDS011;31563;51.744;8.252;2022-09-03T06:41:27;5.80;;;1.60;;
45842;SDS011;31563;51.744;8.252;2022-09-03T06:43:58;9.55;;;1.42;;
45842;SDS011;31563;51.744;8.252;2022-09-03T06:46:29;9.15;;;1.63;;
45842;SDS011;31563;51.744;8.252;2022-09-03T06:49:00;5.05;;;1.52;;
45842;SDS011;31563;51.744;8.252;2022-09-03T06:51:29;5.40;;;1.40;;
45842;SDS011;31563;51.744;8.252;2022-09-03T06:53:59;6.20;;;1.42;;
45842;SDS011;31563;51.744;8.252;2022-09-03T06:56:28;3.53;;;1.15;;
45842;SDS011;31563;51.744;8.252;2022-09-03T06:59:04;4.35;;;1.60;;
45842;SDS011;31563;51.744;8.252;2022-09-03T07:04:10;6.15;;;1.00;;
45842;SDS011;31563;51.744;8.252;2022-09-03T07:06:41;4.03;;;0.90;;
45842;SDS011;31563;51.744;8.252;2022-09-03T07:09:10;3.92;;;1.33;;
45842;SDS011;31563;51.744;8.252;2022-09-03T07:11:41;4.72;;;0.70;;
45842;SDS011;31563;51.744;8.252;2022-09-03T07:14:14;1.70;;;0.70;;
45842;SDS011;31563;51.744;8.252;2022-09-03T07:16:43;1.58;;;0.73;;
45842;SDS011;31563;51.744;8.252;2022-09-03T07:19:14;4.30;;;0.90;;
45842;SDS011;31563;51.744;8.252;2022-09-03T07:21:44;3.55;;;0.60;;
45842;SDS011;31563;51.744;8.252;2022-09-03T07:24:16;4.20;;;1.00;;
45842;SDS011;31563;51.744;8.252;2022-09-03T07:26:45;2.10;;;0.60;;
45842;SDS011;31563;51.744;8.252;2022-09-03T07:29:14;1.33;;;0.60;;
45842;SDS011;31563;51.744;8.252;2022-09-03T07:31:46;2.80;;;0.75;;
45842;SDS011;31563;51.744;8.252;2022-09-03T07:34:18;4.03;;;1.00;;
45842;SDS011;31563;51.744;8.252;2022-09-03T07:36:50;1.98;;;0.60;;
45842;SDS011;31563;51.744;8.252;2022-09-03T07:39:19;2.03;;;0.65;;
45842;SDS011;31563;51.744;8.252;2022-09-03T07:41:47;1.85;;;0.85;;
45842;SDS011;31563;51.744;8.252;2022-09-03T07:44:16;2.50;;;0.90;;
45842;SDS011;31563;51.744;8.252;2022-09-03T07:46:46;6.38;;;0.90;;
45842;SDS011;31563;51.744;8.252;2022-09-03T07:49:16;4.85;;;1.02;;
45842;SDS011;31563;51.744;8.252;2022-09-03T07:51:47;4.82;;;0.60;;
45842;SDS011;31563;51.744;8.252;2022-09-03T07:54:19;4.85;;;0.60;;
45842;SDS011;31563;51.744;8.252;2022-09-03T07:56:49;2.17;;;0.77;;
45842;SDS011;31563;51.744;8.252;2022-09-03T07:59:17;17.80;;;1.50;;
45842;SDS011;31563;51.744;8.252;2022-09-03T08:01:46;5.10;;;0.88;;
45842;SDS011;31563;51.744;8.252;2022-09-03T08:06:45;4.20;;;0.65;;
45842;SDS011;31563;51.744;8.252;2022-09-03T08:09:13;5.45;;;0.63;;
45842;SDS011;31563;51.744;8.252;2022-09-03T08:11:41;3.50;;;0.80;;
45842;SDS011;31563;51.744;8.252;2022-09-03T08:14:11;4.55;;;0.60;;
45842;SDS011;31563;51.744;8.252;2022-09-03T08:16:40;4.70;;;0.80;;
45842;SDS011;31563;51.744;8.252;2022-09-03T08:19:11;6.15;;;0.80;;
45842;SDS011;31563;51.744;8.252;2022-09-03T08:21:40;5.93;;;0.80;;
45842;SDS011;31563;51.744;8.252;2022-09-03T08:24:09;6.00;;;0.68;;
45842;SDS011;31563;51.744;8.252;2022-09-03T08:26:39;2.25;;;0.80;;
45842;SDS011;31563;51.744;8.252;2022-09-03T08:29:16;1.65;;;0.50;;
45842;SDS011;31563;51.744;8.252;2022-09-03T08:31:44;3.63;;;0.60;;
45842;SDS011;31563;51.744;8.252;2022-09-03T08:34:13;1.60;;;0.77;;
45842;SDS011;31563;51.744;8.252;2022-09-03T08:36:43;3.22;;;0.75;;
45842;SDS011;31563;51.744;8.252;2022-09-03T08:39:14;1.70;;;0.65;;
45842;SDS011;31563;51.744;8.252;2022-09-03T08:41:46;4.00;;;0.60;;
45842;SDS011;31563;51.744;8.252;2022-09-03T08:44:28;1.30;;;0.40;;
45842;SDS011;31563;51.744;8.252;2022-09-03T08:47:09;1.92;;;0.65;;
45842;SDS011;31563;51.744;8.252;2022-09-03T08:49:41;2.47;;;0.60;;
45842;SDS011;31563;51.744;8.252;2022-09-03T08:52:19;0.93;;;0.57;;
45842;SDS011;31563;51.744;8.252;2022-09-03T08:54:58;1.75;;;0.60;;
45842;SDS011;31563;51.744;8.252;2022-09-03T08:57:31;1.15;;;0.55;;
45842;SDS011;31563;51.744;8.252;2022-09-03T09:00:08;1.85;;;0.50;;
45842;SDS011;31563;51.744;8.252;2022-09-03T09:02:39;2.83;;;0.60;;
45842;SDS011;31563;51.744;8.252;2022-09-03T09:05:26;2.38;;;0.70;;
45842;SDS011;31563;51.744;8.252;2022-09-03T09:08:11;2.75;;;0.60;;
45842;SDS011;31563;51.744;8.252;2022-09-03T09:10:51;0.63;;;0.30;;
45842;SDS011;31563;51.744;8.252;2022-09-03T09:13:26;0.95;;;0.40;;
45842;SDS011;31563;51.744;8.252;2022-09-03T09:16:01;1.73;;;0.43;;
45842;SDS011;31563;51.744;8.252;2022-09-03T09:18:39;1.73;;;0.50;;
45842;SDS011;31563;51.744;8.252;2022-09-03T09:21:22;1.42;;;0.55;;
45842;SDS011;31563;51.744;8.252;2022-09-03T09:23:56;2.33;;;0.43;;
45842;SDS011;31563;51.744;8.252;2022-09-03T09:26:30;1.15;;;0.47;;
45842;SDS011;31563;51.744;8.252;2022-09-03T09:29:01;2.10;;;0.45;;
45842;SDS011;31563;51.744;8.252;2022-09-03T09:31:35;8.40;;;1.90;;
45842;SDS011;31563;51.744;8.252;2022-09-03T09:34:05;4.20;;;1.70;;
45842;SDS011;31563;51.744;8.252;2022-09-03T09:36:35;17.52;;;3.78;;
45842;SDS011;31563;51.744;8.252;2022-09-03T09:39:09;12.80;;;2.83;;
45842;SDS011;31563;51.744;8.252;2022-09-03T09:41:42;8.38;;;2.00;;
45842;SDS011;31563;51.744;8.252;2022-09-03T09:44:23;6.70;;;1.75;;
45842;SDS011;31563;51.744;8.252;2022-09-03T09:47:01;6.57;;;1.80;;
45842;SDS011;31563;51.744;8.252;2022-09-03T09:49:32;3.78;;;1.25;;
45842;SDS011;31563;51.744;8.252;2022-09-03T09:52:07;4.97;;;1.17;;
45842;SDS011;31563;51.744;8.252;2022-09-03T09:54:37;15.05;;;1.48;;
45842;SDS011;31563;51.744;8.252;2022-09-03T09:57:14;7.93;;;0.98;;
45842;SDS011;31563;51.744;8.252;2022-09-03T09:59:44;3.28;;;0.82;;
45842;SDS011;31563;51.744;8.252;2022-09-03T10:02:14;4.50;;;0.68;;
45842;SDS011;31563;51.744;8.252;2022-09-03T10:04:49;2.47;;;0.60;;
45842;SDS011;31563;51.744;8.252;2022-09-03T10:07:26;2.67;;;0.57;;
45842;SDS011;31563;51.744;8.252;2022-09-03T10:10:00;2.50;;;0.80;;
45842;SDS011;31563;51.744;8.252;2022-09-03T10:12:33;16.77;;;1.35;;
45842;SDS011;31563;51.744;8.252;2022-09-03T10:15:10;9.52;;;1.55;;
45842;SDS011;31563;51.744;8.252;2022-09-03T10:17:50;7.63;;;0.85;;
45842;SDS011;31563;51.744;8.252;2022-09-03T10:20:23;6.50;;;0.70;;
45842;SDS011;31563;51.744;8.252;2022-09-03T10:23:00;4.45;;;0.70;;
45842;SDS011;31563;51.744;8.252;2022-09-03T10:25:35;3.97;;;0.95;;
45842;SDS011;31563;51.744;8.252;2022-09-03T10:28:08;2.15;;;0.50;;
45842;SDS011;31563;51.744;8.252;2022-09-03T10:30:46;6.60;;;0.80;;
45842;SDS011;31563;51.744;8.252;2022-09-03T10:33:32;4.20;;;0.80;;
45842;SDS011;31563;51.744;8.252;2022-09-03T10:36:08;4.50;;;0.47;;
45842;SDS011;31563;51.744;8.252;2022-09-03T10:38:42;2.05;;;0.50;;
45842;SDS011;31563;51.744;8.252;2022-09-03T10:41:17;5.28;;;0.60;;
45842;SDS011;31563;51.744;8.252;2022-09-03T10:46:54;2.10;;;0.55;;
45842;SDS011;31563;51.744;8.252;2022-09-03T10:49:30;32.17;;;1.75;;
45842;SDS011;31563;51.744;8.252;2022-09-03T10:52:10;20.08;;;1.20;;
45842;SDS011;31563;51.744;8.252;2022-09-03T10:54:47;46.67;;;2.70;;
45842;SDS011;31563;51.744;8.252;2022-09-03T10:57:25;7.90;;;1.25;;
45842;SDS011;31563;51.744;8.252;2022-09-03T11:00:04;15.68;;;1.00;;
45842;SDS011;31563;51.744;8.252;2022-09-03T11:05:38;5.35;;;0.60;;
45842;SDS011;31563;51.744;8.252;2022-09-03T11:08:11;12.77;;;0.93;;
45842;SDS011;31563;51.744;8.252;2022-09-03T11:10:44;15.88;;;1.25;;
45842;SDS011;31563;51.744;8.252;2022-09-03T11:13:16;9.80;;;0.77;;
45842;SDS011;31563;51.744;8.252;2022-09-03T11:15:52;5.28;;;0.55;;
45842;SDS011;31563;51.744;8.252;2022-09-03T11:18:26;5.72;;;0.85;;
45842;SDS011;31563;51.744;8.252;2022-09-03T12:09:51;16.02;;;1.27;;
45842;SDS011;31563;51.744;8.252;2022-09-03T12:12:30;6.80;;;1.05;;
45842;SDS011;31563;51.744;8.252;2022-09-03T12:15:08;3.15;;;0.50;;
45842;SDS011;31563;51.744;8.252;2022-09-03T12:17:47;4.90;;;0.70;;
45842;SDS011;31563;51.744;8.252;2022-09-03T12:20:33;3.42;;;0.38;;
45842;SDS011;31563;51.744;8.252;2022-09-03T12:23:02;3.20;;;0.70;;
45842;SDS011;31563;51.744;8.252;2022-09-03T12:25:30;4.32;;;0.50;;
45842;SDS011;31563;51.744;8.252;2022-09-03T12:27:59;6.65;;;0.60;;
45842;SDS011;31563;51.744;8.252;2022-09-03T12:30:30;5.82;;;0.50;;
45842;SDS011;31563;51.744;8.252;2022-09-03T12:33:06;2.22;;;0.40;;
45842;SDS011;31563;51.744;8.252;2022-09-03T12:38:25;1.30;;;0.50;;
45842;SDS011;31563;51.744;8.252;2022-09-03T12:40:54;2.13;;;0.47;;
45842;SDS011;31563;51.744;8.252;2022-09-03T12:43:47;2.25;;;0.40;;
45842;SDS011;31563;51.744;8.252;2022-09-03T12:46:21;2.47;;;0.90;;
45842;SDS011;31563;51.744;8.252;2022-09-03T12:49:01;6.82;;;0.60;;
45842;SDS011;31563;51.744;8.252;2022-09-03T12:51:56;5.32;;;0.50;;
45842;SDS011;31563;51.744;8.252;2022-09-03T12:54:31;7.32;;;0.70;;
45842;SDS011;31563;51.744;8.252;2022-09-03T12:57:01;4.35;;;0.60;;
45842;SDS011;31563;51.744;8.252;2022-09-03T12:59:31;4.35;;;0.52;;
45842;SDS011;31563;51.744;8.252;2022-09-03T13:02:03;5.22;;;0.60;;
45842;SDS011;31563;51.744;8.252;2022-09-03T13:04:34;5.18;;;0.50;;
45842;SDS011;31563;51.744;8.252;2022-09-03T13:07:04;3.47;;;0.50;;
45842;SDS011;31563;51.744;8.252;2022-09-03T13:09:35;2.05;;;0.40;;
45842;SDS011;31563;51.744;8.252;2022-09-03T13:12:06;1.85;;;0.50;;
45842;SDS011;31563;51.744;8.252;2022-09-03T13:14:46;1.20;;;0.40;;
45842;SDS011;31563;51.744;8.252;2022-09-03T13:17:29;2.03;;;0.30;;
45842;SDS011;31563;51.744;8.252;2022-09-03T13:20:20;0.75;;;0.40;;
45842;SDS011;31563;51.744;8.252;2022-09-03T13:26:01;2.67;;;0.40;;
45842;SDS011;31563;51.744;8.252;2022-09-03T13:28:41;2.47;;;0.30;;
45842;SDS011;31563;51.744;8.252;2022-09-03T13:31:25;3.38;;;0.65;;
45842;SDS011;31563;51.744;8.252;2022-09-03T13:34:00;4.50;;;0.55;;
45842;SDS011;31563;51.744;8.252;2022-09-03T13:36:35;2.47;;;0.40;;
45842;SDS011;31563;51.744;8.252;2022-09-03T13:39:11;1.00;;;0.30;;
45842;SDS011;31563;51.744;8.252;2022-09-03T13:41:48;1.98;;;0.50;;
45842;SDS011;31563;51.744;8.252;2022-09-03T13:44:23;0.90;;;0.30;;
45842;SDS011;31563;51.744;8.252;2022-09-03T13:47:06;0.85;;;0.30;;
45842;SDS011;31563;51.744;8.252;2022-09-03T13:49:40;2.05;;;0.30;;
45842;SDS011;31563;51.744;8.252;2022-09-03T13:52:33;1.00;;;0.40;;
45842;SDS011;31563;51.744;8.252;2022-09-03T13:55:08;1.23;;;0.40;;
45842;SDS011;31563;51.744;8.252;2022-09-03T13:57:44;2.05;;;0.40;;
45842;SDS011;31563;51.744;8.252;2022-09-03T14:00:24;0.63;;;0.30;;
45842;SDS011;31563;51.744;8.252;2022-09-03T14:03:02;0.60;;;0.40;;
45842;SDS011;31563;51.744;8.252;2022-09-03T14:05:38;2.67;;;0.70;;
45842;SDS011;31563;51.744;8.252;2022-09-03T14:08:17;1.70;;;0.52;;
45842;SDS011;31563;51.744;8.252;2022-09-03T14:10:54;2.35;;;0.38;;
45842;SDS011;31563;51.744;8.252;2022-09-03T14:13:35;2.50;;;0.43;;
45842;SDS011;31563;51.744;8.252;2022-09-03T14:16:15;2.50;;;0.40;;
45842;SDS011;31563;51.744;8.252;2022-09-03T14:18:55;2.42;;;0.35;;
45842;SDS011;31563;51.744;8.252;2022-09-03T14:21:28;2.08;;;0.52;;
45842;SDS011;31563;51.744;8.252;2022-09-03T14:24:05;0.60;;;0.40;;
45842;SDS011;31563;51.744;8.252;2022-09-03T14:26:47;1.50;;;0.50;;
45842;SDS011;31563;51.744;8.252;2022-09-03T14:29:17;1.73;;;0.50;;
45842;SDS011;31563;51.744;8.252;2022-09-03T14:31:57;0.73;;;0.32;;
45842;SDS011;31563;51.744;8.252;2022-09-03T14:34:45;0.88;;;0.40;;
45842;SDS011;31563;51.744;8.252;2022-09-03T14:37:32;2.05;;;0.40;;
45842;SDS011;31563;51.744;8.252;2022-09-03T14:40:15;0.90;;;0.38;;
45842;SDS011;31563;51.744;8.252;2022-09-03T14:42:55;1.83;;;0.40;;
45842;SDS011;31563;51.744;8.252;2022-09-03T14:51:38;2.30;;;0.50;;
45842;SDS011;31563;51.744;8.252;2022-09-03T14:54:29;1.17;;;0.40;;
45842;SDS011;31563;51.744;8.252;2022-09-03T14:57:16;0.80;;;0.40;;
45842;SDS011;31563;51.744;8.252;2022-09-03T15:00:00;0.60;;;0.30;;
45842;SDS011;31563;51.744;8.252;2022-09-03T15:05:40;0.98;;;0.30;;
45842;SDS011;31563;51.744;8.252;2022-09-03T15:08:17;0.55;;;0.30;;
45842;SDS011;31563;51.744;8.252;2022-09-03T15:10:56;2.03;;;0.30;;
45842;SDS011;31563;51.744;8.252;2022-09-03T15:13:28;1.02;;;0.35;;
45842;SDS011;31563;51.744;8.252;2022-09-03T15:16:06;0.38;;;0.20;;
45842;SDS011;31563;51.744;8.252;2022-09-03T15:18:47;0.40;;;0.20;;
45842;SDS011;31563;51.744;8.252;2022-09-03T15:21:28;2.10;;;0.32;;
45842;SDS011;31563;51.744;8.252;2022-09-03T15:24:11;0.70;;;0.30;;
45842;SDS011;31563;51.744;8.252;2022-09-03T15:26:55;1.17;;;0.30;;
45842;SDS011;31563;51.744;8.252;2022-09-03T15:29:37;0.80;;;0.30;;
45842;SDS011;31563;51.744;8.252;2022-09-03T15:32:19;0.70;;;0.50;;
45842;SDS011;31563;51.744;8.252;2022-09-03T15:35:01;0.35;;;0.20;;
45842;SDS011;31563;51.744;8.252;2022-09-03T15:37:33;1.23;;;0.30;;
45842;SDS011;31563;51.744;8.252;2022-09-03T15:40:07;2.67;;;0.40;;
45842;SDS011;31563;51.744;8.252;2022-09-03T15:42:51;0.68;;;0.20;;
45842;SDS011;31563;51.744;8.252;2022-09-03T15:45:27;1.60;;;0.40;;
45842;SDS011;31563;51.744;8.252;2022-09-03T15:48:05;1.30;;;0.50;;
45842;SDS011;31563;51.744;8.252;2022-09-03T15:50:48;0.75;;;0.28;;
45842;SDS011;31563;51.744;8.252;2022-09-03T15:53:26;1.73;;;0.20;;
45842;SDS011;31563;51.744;8.252;2022-09-03T15:56:01;0.55;;;0.20;;
45842;SDS011;31563;51.744;8.252;2022-09-03T15:58:40;1.75;;;0.32;;
45842;SDS011;31563;51.744;8.252;2022-09-03T16:01:20;0.90;;;0.30;;
45842;SDS011;31563;51.744;8.252;2022-09-03T16:03:57;3.97;;;0.45;;
45842;SDS011;31563;51.744;8.252;2022-09-03T16:06:37;0.65;;;0.28;;
45842;SDS011;31563;51.744;8.252;2022-09-03T16:09:19;0.80;;;0.30;;
45842;SDS011;31563;51.744;8.252;2022-09-03T16:11:58;1.63;;;0.38;;
45842;SDS011;31563;51.744;8.252;2022-09-03T16:14:36;1.25;;;0.40;;
45842;SDS011;31563;51.744;8.252;2022-09-03T16:17:12;1.42;;;0.50;;
45842;SDS011;31563;51.744;8.252;2022-09-03T16:19:51;1.00;;;0.35;;
45842;SDS011;31563;51.744;8.252;2022-09-03T16:22:25;0.35;;;0.20;;
45842;SDS011;31563;51.744;8.252;2022-09-03T16:24:56;1.17;;;0.40;;
45842;SDS011;31563;51.744;8.252;2022-09-03T16:27:29;2.05;;;0.40;;
45842;SDS011;31563;51.744;8.252;2022-09-03T16:30:07;4.57;;;0.63;;
45842;SDS011;31563;51.744;8.252;2022-09-03T16:32:48;2.97;;;0.30;;
45842;SDS011;31563;51.744;8.252;2022-09-03T16:35:29;3.88;;;0.60;;
45842;SDS011;31563;51.744;8.252;2022-09-03T16:38:10;2.20;;;0.60;;
45842;SDS011;31563;51.744;8.252;2022-09-03T16:40:49;3.90;;;0.67;;
45842;SDS011;31563;51.744;8.252;2022-09-03T16:43:23;3.23;;;0.90;;
45842;SDS011;31563;51.744;8.252;2022-09-03T16:46:11;2.63;;;0.65;;
45842;SDS011;31563;51.744;8.252;2022-09-03T16:48:49;1.73;;;0.80;;
45842;SDS011;31563;51.744;8.252;2022-09-03T16:51:26;1.40;;;0.55;;
45842;SDS011;31563;51.744;8.252;2022-09-03T16:54:04;1.92;;;0.50;;
45842;SDS011;31563;51.744;8.252;2022-09-03T16:56:52;2.20;;;0.80;;
45842;SDS011;31563;51.744;8.252;2022-09-03T16:59:30;2.88;;;0.80;;